Airfield :
LOGIN :

Register | Disclaimer

   EN    FR    IT 

 










Legend :    VFR   Marginal VFR   IFR   Intensive IFR   Very Intensive IFR
Visi :
Ceiling :
>= 8 km
>= 3000ft
5 to 8 km
1000 to 3000 ft
1500m to 5 km
500 to 1000 ft
800 to 1500m
200 to 500 ft
< 800m
< 200 ft
Symbols :   Thunderstorms  Fog  Heavy snow  Heavy precipitations  Wind > 20 kt
SIGMETs :     Misc.  Thunderstorms  Icing  Turbulence  Mountain Waves  Volcanic Ashes







- Airport Elevation : 65 ft
- IATA code : PMO


LICJ - Palermo Punta Raisi

CURRENT METAR :
  • 252050Z 13006KT 9000 FEW010 SCT030 16/14 Q1022

EXPIRED METARs :
  • 252020Z 10001KT 9000 SCT020 16/14 Q1022
  • 251950Z 36003KT 9000 SCT015 16/14 Q1022
  • 251920Z 04004KT 9000 FEW005 SCT030 16/14 Q1022
  • 251850Z 07007KT 9000 SCT045 16/14 Q1021
  • 251820Z 06009KT 9000 SCT040 16/13 Q1021

TAF TAF LICJ
Valid from the 25 at 18:00 until the 26 at 18:00 UTC


251700Z 2518/2618 06013KT CAVOK
BECMG 2518/2520 VRB05KT
BECMG 2606/2608 03010KT
No reported NOTAMs for that airfield.



MET'MAP, your aeronautical weather chart ! - Copyright ORBIFLY December 2007 - Disclaimer

ORBIFLY MET'MAP TEAM :

Programming & Development : Alexandra Zaïnal
Concept & Development : Baudouin d'Aumeries
Co-Development & Prog : Marc-Olivier Méhu
Technical & hardware support : Manuel Goepfert

Contact : metmap@orbifly.com




SOURCES & CREDITS :

   NOAA